הכול
Hohn Air Base Airport (Hohn) ETNH מזג אוויר
|
Hohn (ETNH)
שמים בהירים
רוחות |
|
14 °C |
ETNH Terminal Area Forecast
| Date | Time (CEST) | Flight Rules | Wind Dir. | Speed | Type | Height AGL (ft) | Visibility | Remarks | ||||||
|---|---|---|---|---|---|---|---|---|---|---|---|---|---|---|
Recent ETNH METAR history
| Date | Time (CEST) | Flight Rules | Wind Dir. | Speed | Type | Height AGL (ft) | Visibility | Temp (°C) | Temp (°F) | Dew Point (°C) | Dew Point (°F) | Rel. Humid. | Pressure | Density Altitude | Remarks |
|---|---|---|---|---|---|---|---|---|---|---|---|---|---|---|---|
| 05-ספט | 21:20 | VFR | 270° | 13 kt | 10000 meters | 14° | 57° | 10° | 50° | 77% | 1018 mb | -223 ft | |||
| 05-ספט | 20:20 | VFR | 280° | 15 kt | 10000 meters | 15° | 59° | 10° | 50° | 72% | 1018 mb | -103 ft | |||
| 05-ספט | 19:20 | VFR | 280° | 16 kt | 10000 meters | 15° | 59° | 11° | 51° | 77% | 1017 mb | -73 ft | |||
| 05-ספט | 18:20 | VFR | 280° | 22 kt | 10000 meters | 16° | 60° | 11° | 51° | 72% | 1016 mb | 77 ft | |||
| 05-ספט | 17:20 | VFR | 260° | 23 kt | 10000 meters |
17° | 62° | 10° | 50° | 63% | 1015 mb | 226 ft | Wind gusting to 35 KT | ||
| 05-ספט | 16:20 | MVFR | 260° | 23 kt | 6000 meters |
17° | 62° | 12° | 53° | 72% | 1014 mb | 256 ft | |||
| 05-ספט | 15:20 | VFR | 280° | 21 kt | 10000 meters |
17° | 62° | 11° | 51° | 68% | 1013 mb | 285 ft | Wind gusting to 32 KT | ||
| 05-ספט | 14:20 | VFR | 290° | 21 kt | 9000 meters |
17° | 62° | 12° | 53° | 72% | 1013 mb | 285 ft | Wind gusting to 31 KT | ||
| 05-ספט | 13:20 | VFR | 280° | 20 kt | 10000 meters | 17° | 62° | 12° | 53° | 72% | 1012 mb | 315 ft | |||
| 05-ספט | 12:20 | VFR | 250° | 14 kt | 10000 meters | 17° | 62° | 12° | 53° | 72% | 1011 mb | 344 ft | Wind gusting to 26 KT | ||
| 05-ספט | 11:20 | VFR | 250° | 13 kt | 10000 meters | 18° | 64° | 13° | 55° | 73% | 1010 mb | 494 ft | |||
| 05-ספט | 10:20 | VFR | 260° | 15 kt | 10000 meters | 18° | 64° | 13° | 55° | 73% | 1010 mb | 494 ft | Wind gusting to 27 KT | ||
| 05-ספט | 09:20 | VFR | 250° | 9 kt | 10000 meters | 16° | 60° | 13° | 55° | 82% | 1010 mb | 254 ft | |||
| 05-ספט | 08:20 | VFR | 250° | 8 kt | 10000 meters | 16° | 60° | 12° | 53° | 77% | 1009 mb | 283 ft | |||
| 05-ספט | 07:20 | VFR | 250° | 7 kt | 10000 meters | 14° | 57° | 12° | 53° | 88% | 1009 mb | 43 ft | |||
| 05-ספט | 06:20 | VFR | 250° | 8 kt | 10000 meters | 14° | 57° | 12° | 53° | 88% | 1009 mb | 43 ft | |||
| 05-ספט | 05:20 | VFR | 260° | 6 kt | 10000 meters | 14° | 57° | 12° | 53° | 88% | 1009 mb | 43 ft | |||
| 05-ספט | 04:20 | VFR | 250° | 7 kt | 10000 meters | 14° | 57° | 11° | 51° | 82% | 1008 mb | 73 ft | |||
| 05-ספט | 03:20 | VFR | 260° | 10 kt | 10000 meters | 14° | 57° | 11° | 51° | 82% | 1008 mb | 73 ft | |||
| 05-ספט | 02:20 | VFR | 270° | 12 kt | 10000 meters | 14° | 57° | 11° | 51° | 82% | 1008 mb | 73 ft | |||
| 05-ספט | 01:20 | VFR | 270° | 13 kt | 10000 meters | 15° | 59° | 12° | 53° | 82% | 1007 mb | 222 ft | |||
| 05-ספט | 00:20 | VFR | 280° | 15 kt | 10000 meters | 14° | 57° | 13° | 55° | 94% | 1007 mb | 102 ft | |||
| 04-ספט | 23:20 | VFR | 270° | 16 kt | 10000 meters | 15° | 59° | 12° | 53° | 82% | 1006 mb | 252 ft | |||
| 04-ספט | 22:20 | VFR | 270° | 12 kt | 10000 meters | 15° | 59° | 13° | 55° | 88% | 1006 mb | 252 ft |
כניסה לאתר
| אין תמיכה בדפדפן שלך. שדרג את הדפדפן שלך |
